Time;durP1;ratioP1;P1;durP2;ratioP2;P2;SDS_P1;SDS_P2;PMS_P1;PMS_P2;Temp;Humidity;BMP_temperature;BMP_pressure;BME280_temperature;BME280_humidity;BME280_pressure;Samples;Min_cycle;Max_cycle;Signal;HPM_P1;HPM_P2
2022/06/19 00:01:09;;;;;;;17.37;3.60;;;26.10;67.30;;;;;;4989707;28;20820;-74
2022/06/19 00:03:55;;;;;;;13.50;3.23;;;26.20;66.40;;;;;;4989220;28;20444;-74
2022/06/19 00:06:22;;;;;;;13.97;3.53;;;26.20;66.10;;;;;;4987354;28;20236;-74
2022/06/19 00:08:48;;;;;;;13.93;3.30;;;26.20;65.70;;;;;;4988960;28;20425;-74
2022/06/19 00:11:18;;;;;;;13.93;3.40;;;26.20;65.00;;;;;;4991354;28;20785;-74
2022/06/19 00:13:44;;;;;;;16.80;4.30;;;26.20;64.40;;;;;;4991890;28;20468;-74
2022/06/19 00:16:10;;;;;;;18.90;3.50;;;26.10;64.10;;;;;;5007058;28;20479;-74
2022/06/19 00:18:38;;;;;;;16.87;4.37;;;26.10;64.60;;;;;;4992373;28;21290;-73
2022/06/19 00:21:05;;;;;;;26.83;3.83;;;26.10;63.40;;;;;;4992435;28;20950;-73
2022/06/19 00:23:31;;;;;;;19.53;4.00;;;26.10;63.10;;;;;;4992723;28;20483;-75
2022/06/19 00:25:57;;;;;;;17.90;3.80;;;26.10;62.30;;;;;;4994578;28;20839;-74
2022/06/19 00:28:23;;;;;;;26.87;4.00;;;26.10;61.60;;;;;;4991893;28;20280;-74
2022/06/19 00:30:48;;;;;;;18.40;4.23;;;26.10;61.10;;;;;;5006483;28;20214;-74
2022/06/19 00:33:14;;;;;;;24.67;4.13;;;26.00;60.60;;;;;;4991611;28;20944;-73
2022/06/19 00:35:40;;;;;;;18.53;4.03;;;26.00;60.50;;;;;;4991462;28;20174;-74
2022/06/19 00:38:05;;;;;;;13.97;3.47;;;26.00;60.50;;;;;;4990140;28;20563;-75
2022/06/19 00:40:32;;;;;;;16.03;4.13;;;26.00;60.60;;;;;;4991865;28;20609;-75
2022/06/19 00:42:58;;;;;;;18.43;4.13;;;26.00;60.40;;;;;;4991638;28;20203;-75
2022/06/19 00:45:38;;;;;;;22.37;4.90;;;26.00;61.50;;;;;;4990834;28;20952;-75
2022/06/19 00:48:18;;;;;;;21.00;3.93;;;25.90;61.60;;;;;;4991703;28;20174;-75
2022/06/19 00:50:46;;;;;;;25.90;3.47;;;25.90;62.00;;;;;;4991577;28;20475;-74
2022/06/19 00:53:17;;;;;;;18.83;3.17;;;25.90;62.60;;;;;;4991409;28;20436;-74
2022/06/19 00:55:46;;;;;;;15.13;3.80;;;25.90;62.40;;;;;;4991690;28;20402;-74
2022/06/19 00:58:25;;;;;;;14.67;3.40;;;25.90;63.70;;;;;;5006275;28;20417;-73
2022/06/19 01:00:55;;;;;;;15.37;3.70;;;25.80;63.50;;;;;;4990173;28;20432;-73
2022/06/19 01:03:26;;;;;;;16.43;4.00;;;25.80;63.20;;;;;;4991520;28;20452;-74
2022/06/19 01:05:53;;;;;;;14.07;3.60;;;25.80;64.00;;;;;;5006600;28;20463;-75
2022/06/19 01:08:19;;;;;;;10.83;3.10;;;25.70;64.00;;;;;;4990063;28;20426;-74
2022/06/19 01:10:49;;;;;;;26.10;3.77;;;25.90;63.30;;;;;;4991394;28;20460;-75
2022/06/19 01:13:17;;;;;;;27.33;4.23;;;26.00;63.10;;;;;;4991282;28;20452;-74
2022/06/19 01:15:43;;;;;;;16.47;3.57;;;25.80;63.60;;;;;;4991402;28;20926;-74
2022/06/19 01:18:11;;;;;;;17.70;3.70;;;25.90;63.50;;;;;;4991424;28;20508;-74
2022/06/19 01:20:39;;;;;;;22.90;3.93;;;25.80;63.40;;;;;;4991394;28;20424;-74
2022/06/19 01:23:20;;;;;;;12.27;3.97;;;25.90;63.50;;;;;;4990336;28;20466;-74
2022/06/19 01:25:46;;;;;;;23.03;3.37;;;25.80;64.60;;;;;;4991480;28;20413;-74
2022/06/19 01:31:06;;;;;;;14.90;3.50;;;25.60;64.00;;;;;;4991588;28;20875;-74
2022/06/19 01:33:40;;;;;;;13.40;3.33;;;25.70;64.30;;;;;;4991310;28;20812;-74
2022/06/19 01:36:07;;;;;;;13.57;3.70;;;25.70;64.70;;;;;;4991516;28;20498;-74
2022/06/19 01:38:34;;;;;;;15.73;3.43;;;25.60;65.00;;;;;;4990431;28;20789;-74
2022/06/19 01:41:04;;;;;;;15.90;4.00;;;25.50;65.40;;;;;;4990319;28;20432;-75
2022/06/19 01:43:30;;;;;;;18.63;3.10;;;25.50;65.90;;;;;;4991871;28;20444;-74
2022/06/19 01:45:57;;;;;;;26.37;3.90;;;25.30;67.20;;;;;;4990588;28;21129;-74
2022/06/19 01:48:27;;;;;;;20.67;3.80;;;25.20;67.00;;;;;;4991670;28;20194;-74
2022/06/19 01:50:56;;;;;;;15.63;4.17;;;25.20;67.20;;;;;;4991792;28;20468;-73
2022/06/19 01:53:23;;;;;;;16.43;3.90;;;25.10;66.90;;;;;;4991715;28;20446;-73
2022/06/19 01:55:50;;;;;;;22.43;3.13;;;25.20;66.90;;;;;;4992378;28;20458;-74
2022/06/19 01:58:17;;;;;;;16.30;3.23;;;25.10;67.50;;;;;;4992292;28;20432;-73
2022/06/19 02:00:45;;;;;;;13.23;3.83;;;25.10;68.10;;;;;;4990615;28;20805;-74
2022/06/19 02:03:54;;;;;;;20.57;4.20;;;25.00;68.50;;;;;;4992485;28;20442;-75
2022/06/19 02:06:26;;;;;;;16.50;3.83;;;24.80;69.00;;;;;;4996187;28;20450;-73
2022/06/19 02:08:52;;;;;;;15.60;3.60;;;24.70;69.80;;;;;;4992324;28;20603;-75
2022/06/19 02:11:18;;;;;;;19.53;3.73;;;24.50;70.50;;;;;;4991778;28;20574;-74
2022/06/19 02:13:45;;;;;;;20.63;3.33;;;24.50;71.40;;;;;;4989654;28;20823;-73
2022/06/19 02:16:15;;;;;;;17.03;3.70;;;24.30;71.70;;;;;;4990385;28;20428;-74
2022/06/19 02:18:44;;;;;;;19.40;4.20;;;24.30;72.80;;;;;;4990244;28;20481;-74
2022/06/19 02:21:18;;;;;;;10.90;3.97;;;24.30;73.80;;;;;;4990267;28;20432;-73
2022/06/19 02:23:47;;;;;;;13.10;3.30;;;24.20;75.10;;;;;;4989963;28;20467;-74
2022/06/19 02:26:13;;;;;;;24.17;4.63;;;24.10;74.10;;;;;;4988829;28;20456;-74
2022/06/19 02:28:42;;;;;;;19.07;3.30;;;24.10;74.80;;;;;;4990076;28;20442;-74
2022/06/19 02:31:08;;;;;;;14.87;3.77;;;24.10;73.80;;;;;;4988415;28;20476;-74
2022/06/19 02:33:42;;;;;;;21.03;4.80;;;24.20;73.80;;;;;;4989425;28;20447;-74
2022/06/19 02:36:42;;;;;;;14.23;4.03;;;24.30;73.20;;;;;;4989747;28;20662;-74
2022/06/19 02:39:37;;;;;;;15.37;3.83;;;24.30;73.10;;;;;;4989620;28;20769;-74
2022/06/19 02:42:17;;;;;;;17.73;4.17;;;24.30;73.90;;;;;;4988133;28;20444;-75
2022/06/19 02:44:43;;;;;;;15.60;4.03;;;24.30;73.80;;;;;;4989425;28;20996;-74
2022/06/19 02:47:10;;;;;;;20.00;5.00;;;24.30;73.70;;;;;;4989524;28;20437;-74
2022/06/19 02:49:36;;;;;;;11.37;3.40;;;24.40;73.90;;;;;;4989394;28;20520;-75
2022/06/19 02:52:03;;;;;;;14.63;4.47;;;24.40;73.90;;;;;;4989345;28;20510;-74
2022/06/19 02:54:30;;;;;;;19.10;4.10;;;24.30;74.40;;;;;;4989389;28;21120;-74
2022/06/19 02:56:56;;;;;;;17.60;4.50;;;24.30;75.10;;;;;;4987935;28;20500;-74
2022/06/19 02:59:22;;;;;;;14.53;4.33;;;24.30;75.00;;;;;;4989171;28;20929;-74
2022/06/19 03:01:49;;;;;;;15.77;3.80;;;24.20;76.20;;;;;;4989197;28;20432;-74
2022/06/19 03:04:18;;;;;;;16.73;3.90;;;24.20;77.00;;;;;;4989251;28;20481;-74
2022/06/19 03:06:44;;;;;;;19.47;3.70;;;24.10;77.10;;;;;;4989374;28;20458;-74
2022/06/19 03:09:10;;;;;;;21.10;3.80;;;24.00;78.00;;;;;;4989233;28;20437;-74
2022/06/19 03:11:35;;;;;;;19.30;4.00;;;24.00;78.40;;;;;;4987605;28;20483;-73
2022/06/19 03:14:01;;;;;;;15.43;3.73;;;23.90;78.80;;;;;;4989052;28;20234;-73
2022/06/19 03:16:27;;;;;;;18.83;3.97;;;23.80;78.70;;;;;;4989292;28;20200;-73
2022/06/19 03:18:52;;;;;;;16.47;3.77;;;23.70;80.90;;;;;;4987713;28;20228;-73
2022/06/19 03:21:18;;;;;;;9.30;3.57;;;23.60;82.00;;;;;;4989163;28;20192;-73
2022/06/19 03:23:44;;;;;;;9.93;3.00;;;23.50;84.60;;;;;;4989108;28;20779;-74
2022/06/19 03:26:10;;;;;;;11.80;3.77;;;23.40;85.60;;;;;;4989066;28;20257;-74
2022/06/19 03:28:35;;;;;;;12.63;3.80;;;23.40;85.10;;;;;;4987470;28;20547;-73
2022/06/19 03:31:01;;;;;;;16.90;4.30;;;23.40;85.30;;;;;;5003827;28;20315;-73
2022/06/19 03:33:27;;;;;;;23.37;3.63;;;23.40;85.60;;;;;;4987752;28;20617;-73
2022/06/19 03:35:53;;;;;;;19.27;4.13;;;23.50;84.70;;;;;;4988988;28;20188;-74
2022/06/19 03:38:19;;;;;;;18.27;3.70;;;23.50;85.10;;;;;;4988975;28;20272;-73
2022/06/19 03:40:44;;;;;;;20.87;3.90;;;23.40;87.60;;;;;;4988939;28;20436;-73
2022/06/19 03:43:10;;;;;;;13.93;3.87;;;23.30;85.60;;;;;;4988843;28;20794;-74
2022/06/19 03:45:36;;;;;;;28.03;4.07;;;23.40;88.20;;;;;;4990552;28;21365;-74
2022/06/19 03:48:02;;;;;;;19.13;4.80;;;23.30;89.30;;;;;;4993347;28;20432;-75
2022/06/19 03:50:28;;;;;;;19.10;4.30;;;23.30;86.10;;;;;;4992717;28;20537;-74
2022/06/19 03:52:54;;;;;;;20.37;4.50;;;23.40;86.70;;;;;;4992497;28;20484;-74
2022/06/19 03:55:20;;;;;;;13.57;3.57;;;23.40;87.00;;;;;;4993009;28;20428;-77
2022/06/19 03:57:46;;;;;;;23.83;4.67;;;23.30;90.00;;;;;;4996087;28;20196;-78
2022/06/19 04:00:15;;;;;;;11.37;3.63;;;23.10;91.70;;;;;;4995526;28;20211;-75
2022/06/19 04:02:42;;;;;;;14.60;3.87;;;22.90;93.40;;;;;;5007052;28;20193;-76
2022/06/19 04:05:08;;;;;;;22.73;4.87;;;22.80;93.70;;;;;;4992495;28;20435;-76
2022/06/19 04:07:34;;;;;;;15.50;3.60;;;22.70;94.90;;;;;;4990703;28;21340;-75
2022/06/19 04:10:02;;;;;;;19.60;4.60;;;22.60;95.40;;;;;;4992090;28;20200;-75
2022/06/19 04:12:27;;;;;;;23.37;4.30;;;22.60;95.60;;;;;;5006785;28;20220;-74
2022/06/19 04:14:53;;;;;;;17.70;3.97;;;22.60;96.60;;;;;;4990747;28;20537;-74
2022/06/19 04:17:19;;;;;;;17.53;4.03;;;22.60;96.70;;;;;;4993193;28;20188;-76
2022/06/19 04:19:44;;;;;;;21.10;4.57;;;22.60;99.00;;;;;;4992864;28;20198;-77
2022/06/19 04:22:10;;;;;;;32.10;4.00;;;22.50;99.10;;;;;;4997581;28;20260;-78
2022/06/19 04:24:36;;;;;;;21.37;4.27;;;22.50;99.10;;;;;;4996316;28;20300;-78
2022/06/19 04:27:05;;;;;;;15.43;4.00;;;22.60;99.00;;;;;;4983092;28;20196;-79
2022/06/19 04:29:31;;;;;;;16.97;3.90;;;22.60;99.60;;;;;;5006239;28;20680;-80
2022/06/19 04:31:57;;;;;;;14.70;4.70;;;22.60;99.90;;;;;;5005328;28;20490;-80
2022/06/19 04:34:23;;;;;;;17.60;4.10;;;22.40;99.90;;;;;;5020502;28;20451;-80
2022/06/19 04:36:49;;;;;;;17.50;3.57;;;22.40;99.90;;;;;;4998425;28;20499;-82
2022/06/19 04:39:14;;;;;;;13.83;3.37;;;22.40;99.90;;;;;;5000727;28;20195;-83
2022/06/19 04:41:43;;;;;;;19.50;3.60;;;22.40;99.90;;;;;;4982707;28;20203;-82
2022/06/19 04:44:15;;;;;;;18.83;5.40;;;22.40;99.90;;;;;;5001612;28;20213;-80
2022/06/19 04:46:42;;;;;;;17.57;3.53;;;22.40;99.90;;;;;;4995178;28;20438;-80
2022/06/19 04:49:08;;;;;;;19.67;4.23;;;22.40;99.90;;;;;;4992757;28;20447;-79
2022/06/19 04:51:34;;;;;;;15.83;3.70;;;22.50;99.90;;;;;;5007909;28;20512;-78
2022/06/19 04:54:00;;;;;;;19.53;4.40;;;22.60;99.90;;;;;;4992084;28;20438;-81
2022/06/19 04:56:25;;;;;;;20.20;4.40;;;22.60;99.90;;;;;;4991598;28;20197;-80
2022/06/19 04:58:52;;;;;;;19.73;4.13;;;22.70;99.90;;;;;;4992664;28;20614;-80
2022/06/19 05:01:27;;;;;;;17.97;4.63;;;22.80;99.90;;;;;;4992831;28;20243;-80
2022/06/19 05:03:55;;;;;;;15.13;4.70;;;22.90;99.90;;;;;;4975171;28;20541;-82
2022/06/19 05:06:21;;;;;;;14.00;4.27;;;22.90;99.90;;;;;;5006472;28;20969;-82
2022/06/19 05:08:47;;;;;;;14.47;3.90;;;23.00;99.90;;;;;;4990301;28;20435;-83
2022/06/19 05:11:13;;;;;;;14.57;5.00;;;22.90;99.90;;;;;;4991454;28;20463;-82
2022/06/19 05:13:39;;;;;;;9.20;3.60;;;23.00;99.90;;;;;;5006210;28;20647;-81
2022/06/19 05:16:13;;;;;;;23.10;4.27;;;23.10;99.90;;;;;;4973960;28;20420;-83
2022/06/19 05:18:39;;;;;;;18.97;4.20;;;23.20;99.90;;;;;;4990471;28;20869;-80
2022/06/19 05:21:06;;;;;;;13.60;3.53;;;23.20;99.90;;;;;;4990908;28;20522;-80
2022/06/19 05:23:33;;;;;;;18.10;4.20;;;23.20;99.90;;;;;;5006091;28;20434;-81
2022/06/19 05:26:05;;;;;;;16.70;4.00;;;23.30;99.90;;;;;;4991386;28;20519;-80
2022/06/19 05:28:31;;;;;;;18.53;4.50;;;23.40;99.90;;;;;;5006474;28;20536;-81
2022/06/19 05:30:59;;;;;;;9.87;3.03;;;23.50;99.90;;;;;;4989984;28;20476;-81
2022/06/19 05:33:25;;;;;;;12.67;3.50;;;23.70;99.90;;;;;;4989906;28;20447;-82
2022/06/19 05:35:51;;;;;;;17.83;3.70;;;23.80;99.90;;;;;;5007983;28;20469;-80
2022/06/19 05:38:17;;;;;;;14.63;4.70;;;23.90;99.90;;;;;;4991970;28;20523;-79
2022/06/19 05:40:42;;;;;;;22.03;4.77;;;24.00;99.90;;;;;;4975803;28;20551;-80
2022/06/19 05:43:09;;;;;;;13.63;3.80;;;24.10;99.30;;;;;;4993238;28;20212;-79
2022/06/19 05:45:34;;;;;;;15.27;3.83;;;24.20;99.40;;;;;;4990696;28;20190;-77
2022/06/19 05:48:00;;;;;;;15.10;4.23;;;24.30;98.00;;;;;;4992007;28;20478;-78
2022/06/19 05:50:26;;;;;;;15.70;3.57;;;24.30;98.20;;;;;;4993257;28;20245;-79
2022/06/19 05:52:51;;;;;;;14.93;4.10;;;24.30;95.40;;;;;;4975327;28;20213;-78
2022/06/19 05:55:17;;;;;;;19.67;4.33;;;24.30;94.80;;;;;;4995117;28;20192;-79
2022/06/19 05:57:42;;;;;;;13.27;3.67;;;24.30;96.90;;;;;;4995627;28;20180;-78
2022/06/19 06:00:09;;;;;;;8.73;3.40;;;24.30;97.40;;;;;;4997063;28;20184;-79
2022/06/19 06:02:35;;;;;;;18.50;4.77;;;24.30;98.70;;;;;;5001540;28;20275;-78
2022/06/19 06:05:01;;;;;;;19.90;4.30;;;24.30;99.50;;;;;;4998901;28;20432;-79
2022/06/19 06:07:27;;;;;;;10.50;3.73;;;24.30;99.90;;;;;;4998548;28;20435;-80
2022/06/19 06:09:53;;;;;;;14.00;3.87;;;24.30;99.90;;;;;;4998035;28;20423;-79
2022/06/19 06:12:19;;;;;;;12.53;5.50;;;24.30;98.90;;;;;;4980305;28;20221;-79
2022/06/19 06:14:45;;;;;;;16.17;4.20;;;24.40;99.90;;;;;;4995773;28;20491;-79
2022/06/19 06:17:10;;;;;;;14.13;3.60;;;24.60;98.70;;;;;;5001636;28;20659;-79
2022/06/19 06:19:36;;;;;;;12.33;4.00;;;24.80;97.40;;;;;;5015620;28;20255;-79
2022/06/19 06:22:04;;;;;;;21.00;3.90;;;25.00;98.90;;;;;;4997173;28;20693;-79
2022/06/19 06:24:30;;;;;;;18.73;4.10;;;25.10;99.60;;;;;;4998731;28;20228;-79
2022/06/19 06:26:57;;;;;;;31.73;4.77;;;25.30;98.00;;;;;;4996576;28;20520;-79
2022/06/19 06:29:24;;;;;;;10.20;3.53;;;25.40;99.90;;;;;;4997985;28;20499;-79
2022/06/19 06:31:49;;;;;;;21.60;4.63;;;25.50;99.90;;;;;;4996373;28;20508;-79
2022/06/19 06:34:16;;;;;;;16.43;4.07;;;25.70;99.90;;;;;;4995140;28;20454;-77
2022/06/19 06:36:42;;;;;;;14.83;3.60;;;25.80;99.90;;;;;;4994008;28;20209;-77
2022/06/19 06:39:08;;;;;;;12.13;3.67;;;26.00;99.10;;;;;;4992629;28;20424;-78
2022/06/19 06:41:33;;;;;;;13.90;4.40;;;26.10;97.90;;;;;;4993719;28;20451;-78
2022/06/19 06:43:59;;;;;;;16.20;3.50;;;26.20;99.50;;;;;;4993145;28;20237;-79
2022/06/19 06:46:26;;;;;;;17.93;4.20;;;26.40;99.90;;;;;;5009575;28;20193;-78
2022/06/19 06:48:59;;;;;;;14.77;4.00;;;26.30;99.80;;;;;;5007089;28;20695;-77
2022/06/19 06:51:29;;;;;;;16.13;5.07;;;26.30;99.90;;;;;;5006751;28;20928;-77
2022/06/19 06:53:57;;;;;;;14.33;4.53;;;26.50;99.90;;;;;;4991114;28;20433;-77
2022/06/19 06:56:22;;;;;;;12.63;3.23;;;26.60;99.90;;;;;;4991698;28;20460;-78
2022/06/19 06:58:48;;;;;;;14.27;3.50;;;26.70;99.90;;;;;;4992253;28;20461;-78
2022/06/19 07:01:16;;;;;;;16.50;4.13;;;26.90;99.10;;;;;;4989984;28;20205;-77
2022/06/19 07:03:49;;;;;;;14.23;3.67;;;26.90;99.90;;;;;;4989704;28;20237;-77
2022/06/19 07:06:15;;;;;;;11.77;3.60;;;26.90;99.90;;;;;;4988493;28;20429;-77
2022/06/19 07:08:41;;;;;;;13.97;3.70;;;27.00;99.70;;;;;;4988338;28;20843;-78
2022/06/19 07:11:08;;;;;;;19.47;4.47;;;27.00;98.50;;;;;;4989742;28;20468;-77
2022/06/19 07:13:34;;;;;;;12.60;4.53;;;27.10;99.90;;;;;;4989225;28;20460;-77
2022/06/19 07:15:59;;;;;;;16.27;4.40;;;27.30;97.90;;;;;;4971383;28;20804;-77
2022/06/19 07:18:25;;;;;;;11.80;3.80;;;27.40;99.10;;;;;;4989171;28;20189;-77
2022/06/19 07:20:51;;;;;;;12.13;3.73;;;27.50;97.60;;;;;;4993141;28;20186;-77
2022/06/19 07:23:16;;;;;;;15.93;4.77;;;27.60;97.60;;;;;;4995220;28;20795;-78
2022/06/19 07:25:42;;;;;;;11.03;3.97;;;27.60;98.90;;;;;;4993378;28;20686;-77
2022/06/19 07:28:13;;;;;;;11.63;4.10;;;27.60;97.10;;;;;;4995973;28;20260;-78
2022/06/19 07:30:39;;;;;;;19.90;4.40;;;27.70;99.00;;;;;;4995344;28;20209;-78
2022/06/19 07:33:05;;;;;;;19.10;4.37;;;27.70;97.90;;;;;;4993577;28;20449;-78
2022/06/19 07:35:30;;;;;;;11.67;4.10;;;27.80;99.40;;;;;;4993460;28;20189;-77
2022/06/19 07:37:56;;;;;;;18.27;4.43;;;27.80;99.80;;;;;;5008653;28;21059;-78
2022/06/19 07:40:23;;;;;;;20.40;4.40;;;27.90;98.70;;;;;;4992090;28;20281;-78
2022/06/19 07:42:48;;;;;;;17.30;4.07;;;28.00;99.50;;;;;;4994229;28;20202;-78
2022/06/19 07:45:15;;;;;;;12.47;4.90;;;28.10;99.70;;;;;;4994871;28;20838;-78
2022/06/19 07:50:26;;;;;;;15.63;4.93;;;28.40;99.50;;;;;;4994004;28;20499;-78
2022/06/19 07:52:53;;;;;;;16.57;5.60;;;28.40;98.90;;;;;;4993367;28;20452;-78
2022/06/19 07:55:22;;;;;;;22.57;5.63;;;28.60;98.80;;;;;;5008567;28;20483;-78
2022/06/19 07:57:49;;;;;;;14.40;5.30;;;28.70;98.50;;;;;;5008458;28;20874;-78
2022/06/19 08:00:22;;;;;;;12.73;6.70;;;28.90;97.90;;;;;;4993608;28;20428;-78
2022/06/19 08:02:50;;;;;;;16.20;6.10;;;29.00;96.40;;;;;;4992558;28;20442;-78
2022/06/19 08:05:22;;;;;;;20.20;6.77;;;29.10;94.20;;;;;;5008444;28;20447;-77
2022/06/19 08:07:50;;;;;;;14.93;6.13;;;29.10;94.10;;;;;;4991485;28;20419;-78
2022/06/19 08:10:29;;;;;;;13.10;7.03;;;29.20;94.00;;;;;;4991257;28;20933;-78
2022/06/19 08:12:55;;;;;;;12.90;7.23;;;29.30;92.70;;;;;;5006782;28;20473;-77
2022/06/19 08:15:21;;;;;;;14.93;6.20;;;29.30;93.30;;;;;;4991629;28;20413;-77
2022/06/19 08:17:48;;;;;;;17.00;7.17;;;29.50;92.70;;;;;;5006932;28;20413;-78
2022/06/19 08:20:16;;;;;;;14.10;7.60;;;29.60;92.50;;;;;;4974980;28;20427;-77
2022/06/19 08:22:42;;;;;;;13.70;6.63;;;29.70;92.30;;;;;;4992452;28;20443;-78
2022/06/19 08:25:10;;;;;;;12.60;7.03;;;29.70;92.30;;;;;;4990861;28;20434;-78
2022/06/19 08:27:39;;;;;;;10.93;6.23;;;29.80;91.10;;;;;;5007039;28;20490;-78
2022/06/19 08:30:07;;;;;;;11.70;6.80;;;29.90;91.60;;;;;;5006536;28;20436;-78
2022/06/19 08:32:33;;;;;;;11.83;6.97;;;30.00;92.30;;;;;;5005984;28;20508;-78
2022/06/19 08:34:58;;;;;;;17.30;6.60;;;30.10;91.00;;;;;;5006837;28;20500;-78
2022/06/19 08:37:24;;;;;;;18.67;6.67;;;30.10;91.20;;;;;;4989539;28;20185;-77
2022/06/19 08:39:50;;;;;;;12.50;6.37;;;30.20;90.70;;;;;;4991216;28;20608;-77
2022/06/19 08:42:28;;;;;;;14.63;6.37;;;30.20;90.50;;;;;;4956881;28;20190;-77
2022/06/19 08:45:06;;;;;;;23.00;6.90;;;30.40;90.40;;;;;;4991217;28;20459;-78
2022/06/19 08:47:58;;;;;;;16.83;7.50;;;30.30;90.20;;;;;;4991024;28;21008;-77
2022/06/19 08:50:31;;;;;;;16.47;6.50;;;30.40;90.10;;;;;;4989448;28;20579;-77
2022/06/19 08:53:34;;;;;;;12.83;6.50;;;30.50;89.10;;;;;;4990588;28;20437;-77
2022/06/19 08:56:17;;;;;;;15.90;7.00;;;30.60;87.70;;;;;;4989086;28;20480;-77
2022/06/19 08:59:02;;;;;;;9.20;6.20;;;30.80;88.40;;;;;;4990698;28;20443;-78
2022/06/19 09:01:50;;;;;;;16.17;7.80;;;30.80;86.50;;;;;;4990471;28;20902;-77
2022/06/19 09:07:33;;;;;;;14.83;7.33;;;31.00;85.10;;;;;;4990412;28;20456;-76
2022/06/19 09:10:17;;;;;;;11.53;6.93;;;31.10;84.80;;;;;;4990924;28;20411;-76
2022/06/19 09:13:06;;;;;;;18.83;8.50;;;31.30;85.10;;;;;;4990198;28;20440;-76
2022/06/19 09:15:44;;;;;;;22.47;8.43;;;31.40;83.80;;;;;;4990327;28;20491;-76
2022/06/19 09:18:23;;;;;;;12.17;7.10;;;31.60;84.00;;;;;;4990723;28;20401;-76
2022/06/19 09:21:08;;;;;;;17.07;7.40;;;31.70;82.90;;;;;;4992854;28;20409;-79
2022/06/19 09:23:59;;;;;;;13.50;8.60;;;31.90;82.40;;;;;;5007832;28;20445;-78
2022/06/19 09:26:52;;;;;;;15.33;7.73;;;31.90;82.00;;;;;;4994454;28;21259;-77
2022/06/19 09:29:26;;;;;;;14.53;7.33;;;32.10;81.10;;;;;;4993916;28;20797;-78
2022/06/19 09:32:05;;;;;;;19.07;9.57;;;32.20;80.80;;;;;;4995689;28;20452;-78
2022/06/19 09:34:38;;;;;;;19.70;7.83;;;32.30;79.20;;;;;;5009127;28;20445;-76
2022/06/19 09:37:05;;;;;;;10.80;8.30;;;32.40;77.20;;;;;;4993629;28;20429;-78
2022/06/19 09:39:47;;;;;;;11.40;8.40;;;32.50;77.40;;;;;;4996362;28;20523;-78
2022/06/19 09:42:21;;;;;;;14.43;8.97;;;32.60;79.50;;;;;;4994203;28;20460;-78
2022/06/19 09:45:06;;;;;;;14.80;8.07;;;32.70;77.20;;;;;;4995024;28;20987;-78
2022/06/19 09:47:34;;;;;;;12.50;8.47;;;32.80;74.50;;;;;;4994063;28;20413;-77
2022/06/19 09:50:08;;;;;;;21.97;9.73;;;32.90;77.10;;;;;;4995977;28;20503;-78
2022/06/19 09:52:56;;;;;;;16.47;8.83;;;32.90;77.00;;;;;;4994570;28;20552;-76
2022/06/19 09:55:47;;;;;;;16.60;8.90;;;33.10;74.90;;;;;;4989009;28;20657;-76
2022/06/19 09:58:22;;;;;;;16.20;8.90;;;33.20;72.90;;;;;;4994632;28;20416;-77
2022/06/19 10:00:51;;;;;;;15.60;9.33;;;33.20;72.50;;;;;;4991605;28;20432;-77
2022/06/19 10:03:20;;;;;;;14.23;9.10;;;33.30;73.70;;;;;;4991031;28;20445;-77
2022/06/19 10:06:09;;;;;;;20.17;8.20;;;33.40;72.40;;;;;;4992623;28;20980;-77
2022/06/19 10:08:53;;;;;;;13.93;8.67;;;33.50;72.10;;;;;;4992533;28;20417;-77
2022/06/19 10:11:30;;;;;;;12.90;7.93;;;33.70;73.50;;;;;;4989937;28;20499;-77
2022/06/19 10:14:14;;;;;;;17.63;9.43;;;33.80;71.30;;;;;;4989907;28;20507;-77
2022/06/19 10:17:09;;;;;;;12.67;8.10;;;33.80;69.40;;;;;;4990195;28;20435;-77
2022/06/19 10:19:41;;;;;;;12.67;8.80;;;33.90;71.00;;;;;;4989487;28;20938;-77
2022/06/19 10:22:33;;;;;;;20.60;9.43;;;34.10;69.30;;;;;;4988055;28;20429;-76
2022/06/19 10:25:35;;;;;;;19.20;9.77;;;34.10;72.20;;;;;;4986063;28;20440;-76
2022/06/19 10:28:42;;;;;;;15.30;9.00;;;34.20;69.70;;;;;;4989001;28;21041;-76
2022/06/19 10:31:29;;;;;;;18.90;8.90;;;34.20;69.30;;;;;;4959469;28;21082;-76
2022/06/19 10:34:19;;;;;;;18.33;9.20;;;34.30;67.00;;;;;;4988579;28;20965;-76
2022/06/19 10:37:08;;;;;;;14.10;8.70;;;34.20;68.10;;;;;;4989183;28;20875;-76
2022/06/19 10:40:03;;;;;;;16.97;8.87;;;34.30;66.80;;;;;;4960562;28;20424;-75
2022/06/19 10:42:53;;;;;;;13.57;9.43;;;34.40;68.00;;;;;;4987376;28;20479;-76
2022/06/19 10:45:27;;;;;;;22.53;9.73;;;34.40;66.40;;;;;;4987802;28;20433;-76
2022/06/19 10:48:13;;;;;;;15.70;8.90;;;34.50;68.50;;;;;;4988916;28;20436;-76
2022/06/19 10:51:32;;;;;;;18.47;8.67;;;34.60;67.20;;;;;;4989950;28;20539;-76
2022/06/19 10:54:16;;;;;;;14.60;8.60;;;34.80;66.80;;;;;;4973191;28;20444;-76
2022/06/19 10:57:12;;;;;;;15.57;8.10;;;34.90;66.10;;;;;;4987570;28;20412;-76
2022/06/19 10:59:37;;;;;;;24.53;9.87;;;34.90;65.40;;;;;;4986491;28;20450;-76
2022/06/19 11:05:19;;;;;;;11.80;8.67;;;35.00;63.40;;;;;;4987606;28;20260;-76
2022/06/19 11:07:44;;;;;;;11.20;8.40;;;35.00;65.00;;;;;;4988061;28;20413;-76
2022/06/19 11:10:25;;;;;;;15.10;8.93;;;35.10;61.60;;;;;;4987506;28;20808;-76
2022/06/19 11:12:58;;;;;;;21.00;9.60;;;35.10;64.90;;;;;;4987800;28;20209;-76
2022/06/19 11:15:40;;;;;;;15.47;9.07;;;35.10;63.20;;;;;;4987611;28;20841;-76
2022/06/19 11:18:13;;;;;;;17.77;9.17;;;35.10;64.30;;;;;;4987601;28;20436;-76
2022/06/19 11:21:10;;;;;;;14.47;8.70;;;35.20;61.30;;;;;;4987792;28;20406;-76
2022/06/19 11:23:48;;;;;;;16.23;8.50;;;35.30;60.00;;;;;;4986718;28;20492;-76
2022/06/19 11:26:20;;;;;;;11.70;8.00;;;35.40;64.00;;;;;;4987762;28;20424;-76
2022/06/19 11:29:14;;;;;;;17.53;9.03;;;35.40;62.50;;;;;;5002448;28;20888;-76
2022/06/19 11:32:09;;;;;;;24.30;9.40;;;35.50;61.80;;;;;;5002717;28;20507;-76
2022/06/19 11:34:43;;;;;;;16.00;8.57;;;35.50;60.20;;;;;;4987938;28;20440;-76
2022/06/19 11:37:48;;;;;;;14.33;9.17;;;35.50;59.40;;;;;;4988233;28;20410;-77
2022/06/19 11:40:27;;;;;;;24.73;8.77;;;35.50;58.50;;;;;;4987738;28;20432;-77
2022/06/19 11:42:54;;;;;;;14.90;8.30;;;35.40;57.90;;;;;;4990167;28;20901;-78
2022/06/19 11:45:24;;;;;;;20.33;8.77;;;35.40;58.40;;;;;;4993106;28;20999;-79
2022/06/19 11:47:56;;;;;;;17.93;7.37;;;35.30;58.40;;;;;;5006582;28;20786;-78
2022/06/19 11:50:27;;;;;;;19.77;9.60;;;35.20;59.40;;;;;;4992558;28;20889;-78
2022/06/19 11:52:53;;;;;;;16.33;8.47;;;35.20;58.40;;;;;;4992713;28;20489;-78
2022/06/19 11:55:30;;;;;;;15.47;7.80;;;35.30;58.00;;;;;;4990276;28;20448;-77
2022/06/19 11:58:02;;;;;;;18.13;8.43;;;35.30;57.50;;;;;;4987234;28;20185;-77
2022/06/19 12:00:36;;;;;;;15.03;8.20;;;35.20;55.90;;;;;;4988587;28;20504;-77
2022/06/19 12:03:15;;;;;;;10.97;7.07;;;35.20;54.30;;;;;;4988897;28;20484;-77
2022/06/19 12:05:53;;;;;;;17.17;7.80;;;35.20;55.70;;;;;;4988674;28;20409;-77
2022/06/19 12:08:26;;;;;;;15.20;8.17;;;35.20;54.60;;;;;;4991157;28;20496;-77
2022/06/19 12:10:59;;;;;;;17.67;7.97;;;35.30;54.50;;;;;;4994209;28;20469;-77
2022/06/19 12:13:36;;;;;;;13.30;7.57;;;35.30;53.20;;;;;;5009985;28;20969;-78
2022/06/19 12:16:20;;;;;;;22.37;7.57;;;35.30;52.60;;;;;;4995866;28;20420;-76
2022/06/19 12:18:46;;;;;;;17.87;7.07;;;35.40;52.50;;;;;;4990459;28;20436;-77
2022/06/19 12:21:39;;;;;;;14.80;7.47;;;35.40;52.70;;;;;;4991979;28;20409;-78
2022/06/19 12:24:11;;;;;;;23.53;7.10;;;35.30;53.10;;;;;;4990872;28;20432;-77
2022/06/19 12:26:41;;;;;;;18.50;7.50;;;35.30;52.00;;;;;;4991932;28;20910;-77
2022/06/19 12:29:26;;;;;;;17.53;6.87;;;35.20;51.50;;;;;;5007001;28;20882;-77
2022/06/19 12:31:56;;;;;;;29.37;8.47;;;35.40;52.10;;;;;;4994209;28;20974;-78
2022/06/19 12:34:35;;;;;;;14.80;7.13;;;35.30;50.80;;;;;;5009802;28;20449;-77
2022/06/19 12:37:01;;;;;;;15.63;6.90;;;35.40;49.70;;;;;;4993148;28;20439;-77
2022/06/19 12:39:30;;;;;;;20.30;7.57;;;35.40;50.80;;;;;;4991991;28;20934;-77
2022/06/19 12:42:11;;;;;;;12.67;6.80;;;35.40;49.00;;;;;;4993222;28;20420;-78
2022/06/19 12:45:18;;;;;;;18.40;7.07;;;35.50;49.30;;;;;;4994194;28;21037;-77
2022/06/19 12:48:21;;;;;;;16.13;7.00;;;35.50;49.90;;;;;;4959156;28;20429;-76
2022/06/19 12:51:10;;;;;;;18.73;6.60;;;35.60;49.10;;;;;;4991128;28;20510;-77
2022/06/19 12:53:51;;;;;;;14.27;6.27;;;35.80;49.90;;;;;;4992530;28;20855;-77
2022/06/19 12:56:33;;;;;;;18.57;6.60;;;35.90;51.50;;;;;;4989679;28;20544;-77
2022/06/19 12:59:20;;;;;;;16.40;6.50;;;35.90;48.20;;;;;;4992625;28;20444;-77
2022/06/19 13:02:12;;;;;;;17.80;6.57;;;36.00;49.50;;;;;;4992572;28;20413;-77
2022/06/19 13:05:11;;;;;;;21.27;6.83;;;35.90;50.30;;;;;;4992081;28;20464;-77
2022/06/19 13:08:03;;;;;;;12.67;5.93;;;35.90;48.70;;;;;;4991724;28;20415;-77
2022/06/19 13:10:54;;;;;;;18.40;6.50;;;36.00;47.10;;;;;;4992427;28;20397;-78
2022/06/19 13:13:45;;;;;;;11.07;6.07;;;35.90;48.60;;;;;;4991130;28;20455;-78
2022/06/19 13:16:25;;;;;;;14.10;6.13;;;35.90;47.20;;;;;;4990440;28;20417;-78